createdAt,value
2023-04-17T00:03:59.100Z,41.30
2023-04-17T00:09:02.670Z,41.20
2023-04-17T00:14:07.323Z,41.20
2023-04-17T00:19:11.181Z,41.20
2023-04-17T00:24:15.101Z,41.20
2023-04-17T00:29:19.911Z,41.10
2023-04-17T00:34:23.396Z,41.10
2023-04-17T00:39:27.129Z,41.00
2023-04-17T00:44:31.667Z,41.00
2023-04-17T00:49:35.043Z,41.70
2023-04-17T00:54:39.035Z,40.90
2023-04-17T00:59:47.473Z,40.90
2023-04-17T01:04:51.129Z,41.40
2023-04-17T01:09:58.464Z,40.90
2023-04-17T01:15:03.228Z,41.20
2023-04-17T01:20:07.881Z,41.60
2023-04-17T01:25:15.462Z,41.40
2023-04-17T01:30:18.718Z,41.70
2023-04-17T01:35:22.130Z,41.50
2023-04-17T01:40:26.811Z,41.60
2023-04-17T01:45:30.191Z,41.60
2023-04-17T01:50:35.061Z,41.10
2023-04-17T01:55:39.877Z,41.40
2023-04-17T02:00:43.224Z,41.40
2023-04-17T02:05:47.822Z,41.30
2023-04-17T02:10:53.180Z,41.50
2023-04-17T02:15:57.184Z,41.60
2023-04-17T02:21:00.454Z,41.40
2023-04-17T02:26:05.404Z,41.30
2023-04-17T02:31:09.518Z,41.10
2023-04-17T02:36:13.043Z,40.70
2023-04-17T02:41:17.538Z,40.70
2023-04-17T02:46:20.687Z,40.80
2023-04-17T02:51:25.201Z,40.60
2023-04-17T02:56:29.939Z,40.50
2023-04-17T03:01:34.174Z,40.60
2023-04-17T03:06:37.770Z,40.50
2023-04-17T03:11:42.739Z,40.50
2023-04-17T03:16:46.251Z,40.80
2023-04-17T03:21:49.680Z,40.80
2023-04-17T03:26:57.632Z,40.80
2023-04-17T03:32:00.855Z,41.00
2023-04-17T03:37:04.292Z,40.90
2023-04-17T03:42:14.812Z,40.90
2023-04-17T03:47:18.589Z,41.20
2023-04-17T03:52:22.053Z,41.20
2023-04-17T03:57:27.245Z,41.40
2023-04-17T04:02:31.861Z,41.80
2023-04-17T04:07:35.308Z,41.90
2023-04-17T04:12:39.940Z,41.90
2023-04-17T04:17:43.596Z,42.20
2023-04-17T04:22:48.758Z,42.00
2023-04-17T04:27:56.393Z,42.00
2023-04-17T04:38:05.179Z,42.20
2023-04-17T04:43:09.681Z,42.20
2023-04-17T04:48:12.747Z,42.50
2023-04-17T04:53:15.943Z,42.30
2023-04-17T04:58:20.418Z,42.40
2023-04-17T05:03:23.979Z,42.60
2023-04-17T05:08:27.228Z,42.50
2023-04-17T05:13:31.722Z,42.50
2023-04-17T05:18:34.828Z,42.80
2023-04-17T05:23:37.905Z,42.80
2023-04-17T05:28:45.442Z,42.90
2023-04-17T05:33:48.840Z,43.30
2023-04-17T05:38:52.097Z,43.20
2023-04-17T05:43:56.634Z,43.30
2023-04-17T05:48:59.902Z,43.70
2023-04-17T05:54:03.705Z,43.50
2023-04-17T05:59:08.181Z,43.70
2023-04-17T06:04:14.612Z,44.10
2023-04-17T06:09:18.628Z,43.70
2023-04-17T06:14:23.090Z,43.70
2023-04-17T06:19:26.164Z,44.30
2023-04-17T06:24:29.242Z,44.00
2023-04-17T06:29:33.711Z,44.00
2023-04-17T06:34:41.368Z,44.50
2023-04-17T06:39:49.339Z,44.10
2023-04-17T06:44:54.522Z,44.30
2023-04-17T06:49:59.872Z,44.60
2023-04-17T06:55:03.014Z,44.40
2023-04-17T07:00:12.710Z,44.50
2023-04-17T07:05:15.816Z,45.10
2023-04-17T07:10:19.655Z,44.50
2023-04-17T07:15:24.180Z,44.40
2023-04-17T07:20:27.256Z,44.50
2023-04-17T07:25:30.398Z,44.00
2023-04-17T07:30:36.241Z,44.10
2023-04-17T07:35:39.654Z,44.30
2023-04-17T07:40:42.754Z,44.30
2023-04-17T07:45:47.279Z,44.10
2023-04-17T07:50:50.468Z,44.00
2023-04-17T07:55:54.686Z,43.80
2023-04-17T08:00:59.408Z,43.90
2023-04-17T08:06:02.508Z,43.60
2023-04-17T08:11:05.764Z,43.90
2023-04-17T08:16:11.075Z,43.80
2023-04-17T08:21:14.207Z,43.90
2023-04-17T08:26:19.133Z,44.00
2023-04-17T08:31:23.693Z,44.20
2023-04-17T08:36:27.580Z,44.10
2023-04-17T08:41:37.554Z,43.60
2023-04-17T08:46:42.392Z,43.70
2023-04-17T08:51:47.011Z,43.90
2023-04-17T08:56:50.270Z,44.10
2023-04-17T09:02:05.079Z,43.60
2023-04-17T09:07:09.596Z,42.40
2023-04-17T09:12:13.061Z,42.60
2023-04-17T09:17:18.779Z,42.50
2023-04-17T09:22:22.918Z,41.90
2023-04-17T09:27:27.423Z,42.20
2023-04-17T09:32:33.309Z,42.00
2023-04-17T09:37:50.647Z,41.90
2023-04-17T09:42:59.154Z,41.00
2023-04-17T09:48:06.149Z,40.50
2023-04-17T09:53:09.911Z,41.00
2023-04-17T09:58:13.287Z,41.10
2023-04-17T10:03:18.577Z,40.90
2023-04-17T10:08:21.971Z,40.30
2023-04-17T10:13:29.799Z,40.70
2023-04-17T10:18:34.317Z,39.70
2023-04-17T10:23:38.199Z,39.80
2023-04-17T10:28:49.310Z,40.10
2023-04-17T10:33:55.205Z,39.00
2023-04-17T10:39:14.276Z,39.60
2023-04-17T10:44:19.602Z,39.10
2023-04-17T10:49:24.187Z,39.50
2023-04-17T10:54:27.298Z,39.20
2023-04-17T10:59:30.982Z,39.50
2023-04-17T11:04:35.616Z,39.50
2023-04-17T11:09:39.077Z,38.90
2023-04-17T11:14:43.121Z,38.80
2023-04-17T11:19:48.027Z,39.00
2023-04-17T11:24:52.487Z,38.70
2023-04-17T11:29:55.750Z,38.40
2023-04-17T11:35:00.574Z,38.80
2023-04-17T11:40:07.971Z,38.00
2023-04-17T11:45:12.094Z,38.30
2023-04-17T11:50:18.057Z,38.30
2023-04-17T11:55:21.258Z,38.50
2023-04-17T12:00:29.124Z,38.40
2023-04-17T12:05:33.677Z,38.20
2023-04-17T12:10:41.650Z,37.50
2023-04-17T12:15:44.963Z,36.70
2023-04-17T12:20:49.552Z,38.10
2023-04-17T12:25:52.660Z,38.40
2023-04-17T12:30:55.767Z,38.80
2023-04-17T12:36:01.197Z,39.20
2023-04-17T12:41:04.301Z,39.50
2023-04-17T12:46:07.584Z,38.50
2023-04-17T12:51:12.253Z,38.40
2023-04-17T12:56:15.462Z,38.70
2023-04-17T13:01:18.617Z,38.90
2023-04-17T13:06:23.143Z,39.90
2023-04-17T13:11:26.405Z,39.90
2023-04-17T13:16:29.547Z,40.20
2023-04-17T13:21:34.023Z,40.00
2023-04-17T13:26:39.283Z,40.10
2023-04-17T13:31:42.417Z,40.30
2023-04-17T13:36:46.952Z,40.50
2023-04-17T13:41:52.687Z,40.90
2023-04-17T13:46:56.303Z,40.80
2023-04-17T13:52:00.942Z,40.60
2023-04-17T13:57:04.125Z,41.50
2023-04-17T14:02:07.922Z,41.40
2023-04-17T14:07:15.383Z,41.50
2023-04-17T14:12:20.892Z,41.70
2023-04-17T14:17:24.056Z,41.60
2023-04-17T14:22:28.523Z,41.70
2023-04-17T14:27:31.615Z,42.40
2023-04-17T14:32:34.732Z,41.50
2023-04-17T14:37:39.433Z,41.50
2023-04-17T14:42:53.648Z,41.20
2023-04-17T14:47:58.651Z,41.10
2023-04-17T14:53:04.266Z,41.40
2023-04-17T14:58:07.566Z,41.00
2023-04-17T15:03:10.817Z,41.20
2023-04-17T15:08:15.376Z,41.50
2023-04-17T15:13:18.482Z,40.60
2023-04-17T15:18:21.652Z,41.00
2023-04-17T15:23:26.614Z,40.70
2023-04-17T15:28:29.760Z,40.60
2023-04-17T15:33:33.098Z,40.60
2023-04-17T15:38:37.575Z,41.00
2023-04-17T15:43:40.728Z,40.10
2023-04-17T15:48:44.197Z,40.10
2023-04-17T15:53:49.964Z,40.30
2023-04-17T15:58:53.056Z,39.90
2023-04-17T16:03:56.436Z,40.20
2023-04-17T16:09:01.033Z,39.90
2023-04-17T16:14:04.139Z,39.80
2023-04-17T16:19:07.324Z,40.20
2023-04-17T16:24:12.098Z,39.90
2023-04-17T16:29:15.381Z,40.00
2023-04-17T16:34:19.431Z,39.90
2023-04-17T16:39:23.939Z,40.10
2023-04-17T16:44:28.331Z,40.20
2023-04-17T16:49:31.467Z,40.30
2023-04-17T16:54:35.995Z,40.40
2023-04-17T16:59:39.100Z,40.30
2023-04-17T17:04:42.281Z,40.10
2023-04-17T17:09:46.872Z,40.00
2023-04-17T17:14:49.976Z,39.90
2023-04-17T17:19:53.147Z,39.90
2023-04-17T17:24:57.605Z,39.80
2023-04-17T17:30:01.934Z,39.50
2023-04-17T17:35:05.328Z,39.80
2023-04-17T17:40:11.122Z,39.90
2023-04-17T17:45:14.407Z,39.90
2023-04-17T17:50:17.725Z,39.90
2023-04-17T17:55:22.511Z,39.90
2023-04-17T18:00:25.925Z,40.00
2023-04-17T18:05:29.298Z,39.90
2023-04-17T18:10:34.112Z,40.10
2023-04-17T18:15:37.500Z,40.30
2023-04-17T18:20:40.877Z,39.90
2023-04-17T18:25:45.359Z,39.80
2023-04-17T18:30:48.553Z,40.00
2023-04-17T18:35:52.010Z,40.00
2023-04-17T18:40:59.400Z,39.90
2023-04-17T18:46:04.821Z,40.20
2023-04-17T18:51:11.999Z,40.30
2023-04-17T18:56:16.883Z,40.40
2023-04-17T19:01:20.062Z,40.40
2023-04-17T19:06:23.216Z,40.30
2023-04-17T19:11:28.184Z,40.30
2023-04-17T19:16:31.396Z,40.30
2023-04-17T19:21:34.710Z,40.20
2023-04-17T19:26:39.379Z,40.40
2023-04-17T19:31:43.029Z,40.60
2023-04-17T19:36:46.304Z,40.60
2023-04-17T19:41:52.030Z,40.50
2023-04-17T19:46:55.381Z,40.60
2023-04-17T19:51:59.236Z,40.60
2023-04-17T19:57:03.766Z,40.50
2023-04-17T20:02:07.750Z,40.90
2023-04-17T20:07:11.415Z,40.70
2023-04-17T20:12:15.950Z,40.70
2023-04-17T20:17:19.189Z,41.20
2023-04-17T20:22:22.356Z,41.00
2023-04-17T20:27:27.041Z,41.00
2023-04-17T20:32:30.219Z,41.10
2023-04-17T20:37:33.380Z,41.00
2023-04-17T20:42:37.878Z,41.20
2023-04-17T20:47:55.323Z,41.30
2023-04-17T20:52:59.468Z,41.10
2023-04-17T20:58:04.202Z,41.20
2023-04-17T21:03:08.358Z,41.60
2023-04-17T21:08:11.691Z,41.60
2023-04-17T21:13:16.411Z,41.50
2023-04-17T21:18:19.794Z,41.60
2023-04-17T21:23:22.923Z,41.40
2023-04-17T21:28:27.510Z,41.30
2023-04-17T21:33:30.943Z,41.60
2023-04-17T21:38:34.143Z,41.50
2023-04-17T21:43:38.661Z,41.50
2023-04-17T21:48:41.831Z,41.80
2023-04-17T21:53:45.008Z,41.30
2023-04-17T21:58:49.505Z,41.30
2023-04-17T22:03:52.643Z,41.50
2023-04-17T22:08:55.751Z,41.40
2023-04-17T22:14:00.292Z,41.50
2023-04-17T22:19:03.396Z,41.70
2023-04-17T22:24:07.031Z,41.50
2023-04-17T22:29:11.546Z,41.60
2023-04-17T22:34:14.829Z,41.60
2023-04-17T22:39:18.152Z,41.40
2023-04-17T22:44:22.714Z,41.50
2023-04-17T22:49:25.992Z,41.60
2023-04-17T22:54:29.112Z,41.60
2023-04-17T22:59:33.600Z,41.50
2023-04-17T23:04:36.781Z,41.60
2023-04-17T23:09:39.868Z,41.60
2023-04-17T23:14:46.009Z,41.50
2023-04-17T23:19:49.178Z,41.90
2023-04-17T23:24:52.287Z,41.80
2023-04-17T23:29:58.660Z,41.70
2023-04-17T23:35:01.828Z,41.80
2023-04-17T23:40:07.658Z,41.60
2023-04-17T23:45:12.658Z,41.70
2023-04-17T23:50:15.852Z,41.90
2023-04-17T23:55:19.032Z,41.80
